sensor_id;sensor_type;location;lat;lon;timestamp;pressure;altitude;pressure_sealevel;temperature;humidity
61488;BME280;47351;53.326;-6.298;2022-07-06T00:00:13;102670.64;;;16.58;74.21
61488;BME280;47351;53.326;-6.298;2022-07-06T00:02:45;102676.10;;;16.55;74.25
61488;BME280;47351;53.326;-6.298;2022-07-06T00:05:17;102677.85;;;16.49;74.37
61488;BME280;47351;53.326;-6.298;2022-07-06T00:07:49;102685.95;;;16.44;74.61
61488;BME280;47351;53.326;-6.298;2022-07-06T00:10:20;102688.61;;;16.37;74.61
61488;BME280;47351;53.326;-6.298;2022-07-06T00:12:52;102688.23;;;16.30;75.04
61488;BME280;47351;53.326;-6.298;2022-07-06T00:15:34;102691.75;;;16.25;75.31
61488;BME280;47351;53.326;-6.298;2022-07-06T00:18:07;102696.57;;;16.19;75.63
61488;BME280;47351;53.326;-6.298;2022-07-06T00:20:39;102699.75;;;16.15;75.74
61488;BME280;47351;53.326;-6.298;2022-07-06T00:23:12;102705.98;;;16.12;75.92
61488;BME280;47351;53.326;-6.298;2022-07-06T00:25:44;102703.43;;;16.08;76.30
61488;BME280;47351;53.326;-6.298;2022-07-06T00:28:17;102708.38;;;16.05;76.35
61488;BME280;47351;53.326;-6.298;2022-07-06T00:30:49;102705.60;;;16.02;76.68
61488;BME280;47351;53.326;-6.298;2022-07-06T00:33:21;102700.48;;;15.99;76.94
61488;BME280;47351;53.326;-6.298;2022-07-06T00:35:52;102697.98;;;15.95;77.10
61488;BME280;47351;53.326;-6.298;2022-07-06T00:38:24;102698.07;;;15.94;77.29
61488;BME280;47351;53.326;-6.298;2022-07-06T00:40:59;102699.12;;;15.95;77.50
61488;BME280;47351;53.326;-6.298;2022-07-06T00:43:30;102701.91;;;15.94;77.57
61488;BME280;47351;53.326;-6.298;2022-07-06T00:46:20;102703.89;;;15.92;77.68
61488;BME280;47351;53.326;-6.298;2022-07-06T00:49:03;102697.37;;;15.89;77.77
61488;BME280;47351;53.326;-6.298;2022-07-06T00:51:37;102688.23;;;15.84;78.02
61488;BME280;47351;53.326;-6.298;2022-07-06T00:54:09;102674.39;;;15.80;78.08
61488;BME280;47351;53.326;-6.298;2022-07-06T00:56:40;102667.60;;;15.76;78.10
61488;BME280;47351;53.326;-6.298;2022-07-06T00:59:14;102660.95;;;15.70;78.31
61488;BME280;47351;53.326;-6.298;2022-07-06T01:01:45;102659.34;;;15.64;78.58
61488;BME280;47351;53.326;-6.298;2022-07-06T01:04:17;102659.94;;;15.57;78.81
61488;BME280;47351;53.326;-6.298;2022-07-06T01:06:48;102658.39;;;15.53;79.05
61488;BME280;47351;53.326;-6.298;2022-07-06T01:09:20;102663.87;;;15.50;79.13
61488;BME280;47351;53.326;-6.298;2022-07-06T01:11:55;102675.98;;;15.47;79.38
61488;BME280;47351;53.326;-6.298;2022-07-06T01:14:27;102684.58;;;15.46;79.48
61488;BME280;47351;53.326;-6.298;2022-07-06T01:17:01;102679.87;;;15.44;79.76
61488;BME280;47351;53.326;-6.298;2022-07-06T01:19:43;102669.89;;;15.41;79.61
61488;BME280;47351;53.326;-6.298;2022-07-06T01:22:14;102665.48;;;15.38;79.91
61488;BME280;47351;53.326;-6.298;2022-07-06T01:24:46;102670.23;;;15.36;79.84
61488;BME280;47351;53.326;-6.298;2022-07-06T01:27:17;102671.42;;;15.33;79.94
61488;BME280;47351;53.326;-6.298;2022-07-06T01:29:49;102671.01;;;15.29;79.90
61488;BME280;47351;53.326;-6.298;2022-07-06T01:32:24;102674.77;;;15.27;80.11
61488;BME280;47351;53.326;-6.298;2022-07-06T01:34:56;102672.94;;;15.24;80.02
61488;BME280;47351;53.326;-6.298;2022-07-06T01:37:28;102673.13;;;15.22;80.25
61488;BME280;47351;53.326;-6.298;2022-07-06T01:40:46;102663.32;;;15.19;79.99
61488;BME280;47351;53.326;-6.298;2022-07-06T01:43:33;102658.64;;;15.17;80.18
61488;BME280;47351;53.326;-6.298;2022-07-06T01:46:27;102661.53;;;15.17;80.46
61488;BME280;47351;53.326;-6.298;2022-07-06T01:49:11;102656.77;;;15.18;80.66
61488;BME280;47351;53.326;-6.298;2022-07-06T01:52:04;102651.27;;;15.19;80.74
61488;BME280;47351;53.326;-6.298;2022-07-06T01:55:16;102648.41;;;15.20;80.63
61488;BME280;47351;53.326;-6.298;2022-07-06T01:58:08;102644.85;;;15.22;80.63
61488;BME280;47351;53.326;-6.298;2022-07-06T02:01:01;102640.20;;;15.22;80.59
61488;BME280;47351;53.326;-6.298;2022-07-06T02:03:51;102633.61;;;15.21;80.49
61488;BME280;47351;53.326;-6.298;2022-07-06T02:06:42;102624.51;;;15.21;80.68
61488;BME280;47351;53.326;-6.298;2022-07-06T02:09:35;102613.27;;;15.19;80.87
61488;BME280;47351;53.326;-6.298;2022-07-06T02:12:17;102612.98;;;15.18;80.83
61488;BME280;47351;53.326;-6.298;2022-07-06T02:15:12;102611.80;;;15.18;80.80
61488;BME280;47351;53.326;-6.298;2022-07-06T02:18:25;102619.27;;;15.17;80.84
61488;BME280;47351;53.326;-6.298;2022-07-06T02:21:38;102624.34;;;15.16;80.94
61488;BME280;47351;53.326;-6.298;2022-07-06T02:24:40;102630.06;;;15.15;80.89
61488;BME280;47351;53.326;-6.298;2022-07-06T02:27:26;102630.74;;;15.15;80.86
61488;BME280;47351;53.326;-6.298;2022-07-06T02:30:38;102629.27;;;15.16;80.85
61488;BME280;47351;53.326;-6.298;2022-07-06T02:33:10;102614.63;;;15.16;80.92
61488;BME280;47351;53.326;-6.298;2022-07-06T02:35:48;102614.04;;;15.19;80.87
61488;BME280;47351;53.326;-6.298;2022-07-06T02:38:34;102609.48;;;15.19;80.72
61488;BME280;47351;53.326;-6.298;2022-07-06T02:41:13;102610.45;;;15.21;80.53
61488;BME280;47351;53.326;-6.298;2022-07-06T02:43:55;102616.80;;;15.22;80.57
61488;BME280;47351;53.326;-6.298;2022-07-06T02:46:30;102610.29;;;15.22;80.36
61488;BME280;47351;53.326;-6.298;2022-07-06T02:49:14;102607.63;;;15.22;80.18
61488;BME280;47351;53.326;-6.298;2022-07-06T02:52:09;102610.87;;;15.22;80.25
61488;BME280;47351;53.326;-6.298;2022-07-06T02:54:50;102617.87;;;15.22;80.29
61488;BME280;47351;53.326;-6.298;2022-07-06T02:57:45;102619.22;;;15.23;80.17
61488;BME280;47351;53.326;-6.298;2022-07-06T03:00:23;102619.84;;;15.24;80.14
61488;BME280;47351;53.326;-6.298;2022-07-06T03:03:18;102620.70;;;15.26;80.07
61488;BME280;47351;53.326;-6.298;2022-07-06T03:06:12;102621.63;;;15.28;79.89
61488;BME280;47351;53.326;-6.298;2022-07-06T03:09:23;102621.55;;;15.29;79.96
61488;BME280;47351;53.326;-6.298;2022-07-06T03:12:09;102622.71;;;15.28;79.89
61488;BME280;47351;53.326;-6.298;2022-07-06T03:15:22;102624.33;;;15.28;79.84
61488;BME280;47351;53.326;-6.298;2022-07-06T03:18:17;102626.77;;;15.27;79.78
61488;BME280;47351;53.326;-6.298;2022-07-06T03:21:00;102627.58;;;15.26;79.78
61488;BME280;47351;53.326;-6.298;2022-07-06T03:23:56;102631.06;;;15.27;79.83
61488;BME280;47351;53.326;-6.298;2022-07-06T03:26:50;102629.38;;;15.28;79.75
61488;BME280;47351;53.326;-6.298;2022-07-06T03:29:32;102633.33;;;15.28;79.82
61488;BME280;47351;53.326;-6.298;2022-07-06T03:32:44;102635.41;;;15.29;79.96
61488;BME280;47351;53.326;-6.298;2022-07-06T03:35:22;102636.71;;;15.28;79.80
61488;BME280;47351;53.326;-6.298;2022-07-06T03:37:57;102637.48;;;15.28;79.76
61488;BME280;47351;53.326;-6.298;2022-07-06T03:40:42;102634.36;;;15.28;80.04
61488;BME280;47351;53.326;-6.298;2022-07-06T03:43:19;102645.01;;;15.28;79.85
61488;BME280;47351;53.326;-6.298;2022-07-06T03:46:21;102640.98;;;15.29;79.99
61488;BME280;47351;53.326;-6.298;2022-07-06T03:48:57;102648.16;;;15.29;80.12
61488;BME280;47351;53.326;-6.298;2022-07-06T03:51:52;102648.85;;;15.29;80.10
61488;BME280;47351;53.326;-6.298;2022-07-06T03:54:47;102640.13;;;15.30;80.00
61488;BME280;47351;53.326;-6.298;2022-07-06T03:57:25;102632.63;;;15.32;80.05
61488;BME280;47351;53.326;-6.298;2022-07-06T03:59:57;102633.11;;;15.33;79.92
61488;BME280;47351;53.326;-6.298;2022-07-06T04:02:52;102627.93;;;15.34;80.04
61488;BME280;47351;53.326;-6.298;2022-07-06T04:05:37;102632.76;;;15.35;79.97
61488;BME280;47351;53.326;-6.298;2022-07-06T04:08:17;102634.70;;;15.33;79.98
61488;BME280;47351;53.326;-6.298;2022-07-06T04:11:26;102638.91;;;15.32;80.06
61488;BME280;47351;53.326;-6.298;2022-07-06T04:14:03;102635.81;;;15.33;79.86
61488;BME280;47351;53.326;-6.298;2022-07-06T04:16:54;102640.35;;;15.32;79.85
61488;BME280;47351;53.326;-6.298;2022-07-06T04:19:31;102638.46;;;15.31;79.76
61488;BME280;47351;53.326;-6.298;2022-07-06T04:22:10;102633.11;;;15.30;79.89
61488;BME280;47351;53.326;-6.298;2022-07-06T04:24:48;102634.27;;;15.29;79.80
61488;BME280;47351;53.326;-6.298;2022-07-06T04:27:39;102633.93;;;15.29;79.76
61488;BME280;47351;53.326;-6.298;2022-07-06T04:30:20;102636.70;;;15.29;79.82
61488;BME280;47351;53.326;-6.298;2022-07-06T04:33:04;102637.63;;;15.28;79.77
61488;BME280;47351;53.326;-6.298;2022-07-06T04:35:46;102638.73;;;15.28;79.77
61488;BME280;47351;53.326;-6.298;2022-07-06T04:38:21;102635.77;;;15.28;79.47
61488;BME280;47351;53.326;-6.298;2022-07-06T04:41:04;102633.48;;;15.30;79.77
61488;BME280;47351;53.326;-6.298;2022-07-06T04:43:56;102635.80;;;15.35;79.58
61488;BME280;47351;53.326;-6.298;2022-07-06T04:46:30;102635.92;;;15.35;79.57
61488;BME280;47351;53.326;-6.298;2022-07-06T04:49:26;102642.88;;;15.40;79.71
61488;BME280;47351;53.326;-6.298;2022-07-06T04:52:09;102646.06;;;15.42;79.42
61488;BME280;47351;53.326;-6.298;2022-07-06T04:54:47;102641.76;;;15.44;79.37
61488;BME280;47351;53.326;-6.298;2022-07-06T04:57:38;102634.95;;;15.46;79.38
61488;BME280;47351;53.326;-6.298;2022-07-06T05:00:23;102625.48;;;15.47;78.98
61488;BME280;47351;53.326;-6.298;2022-07-06T05:03:14;102626.83;;;15.48;79.01
61488;BME280;47351;53.326;-6.298;2022-07-06T05:05:55;102627.77;;;15.45;78.70
61488;BME280;47351;53.326;-6.298;2022-07-06T05:08:38;102623.08;;;15.44;78.76
61488;BME280;47351;53.326;-6.298;2022-07-06T05:11:27;102621.27;;;15.42;78.78
61488;BME280;47351;53.326;-6.298;2022-07-06T05:14:17;102629.30;;;15.41;78.52
61488;BME280;47351;53.326;-6.298;2022-07-06T05:17:08;102627.17;;;15.40;78.59
61488;BME280;47351;53.326;-6.298;2022-07-06T05:20:08;102629.92;;;15.40;78.49
61488;BME280;47351;53.326;-6.298;2022-07-06T05:22:47;102632.67;;;15.41;78.65
61488;BME280;47351;53.326;-6.298;2022-07-06T05:25:33;102631.48;;;15.42;78.50
61488;BME280;47351;53.326;-6.298;2022-07-06T05:28:11;102629.74;;;15.47;78.46
61488;BME280;47351;53.326;-6.298;2022-07-06T05:30:50;102635.69;;;15.51;78.26
61488;BME280;47351;53.326;-6.298;2022-07-06T05:33:34;102633.98;;;15.54;78.25
61488;BME280;47351;53.326;-6.298;2022-07-06T05:36:36;102634.25;;;15.59;78.01
61488;BME280;47351;53.326;-6.298;2022-07-06T05:39:37;102645.64;;;15.64;77.96
61488;BME280;47351;53.326;-6.298;2022-07-06T05:42:42;102643.89;;;15.68;77.75
61488;BME280;47351;53.326;-6.298;2022-07-06T05:45:19;102645.64;;;15.70;77.62
61488;BME280;47351;53.326;-6.298;2022-07-06T05:47:58;102641.61;;;15.72;77.41
61488;BME280;47351;53.326;-6.298;2022-07-06T05:50:59;102635.58;;;15.74;77.24
61488;BME280;47351;53.326;-6.298;2022-07-06T05:53:36;102630.91;;;15.73;77.09
61488;BME280;47351;53.326;-6.298;2022-07-06T05:56:21;102630.89;;;15.74;77.02
61488;BME280;47351;53.326;-6.298;2022-07-06T05:59:08;102626.12;;;15.74;76.83
61488;BME280;47351;53.326;-6.298;2022-07-06T06:01:50;102628.83;;;15.79;76.61
61488;BME280;47351;53.326;-6.298;2022-07-06T06:04:55;102623.35;;;15.85;76.40
61488;BME280;47351;53.326;-6.298;2022-07-06T06:11:01;102624.57;;;15.96;76.15
61488;BME280;47351;53.326;-6.298;2022-07-06T06:14:15;102626.92;;;16.06;76.01
61488;BME280;47351;53.326;-6.298;2022-07-06T06:17:00;102628.13;;;16.16;75.70
61488;BME280;47351;53.326;-6.298;2022-07-06T06:20:09;102632.55;;;16.24;75.35
61488;BME280;47351;53.326;-6.298;2022-07-06T06:27:04;102634.86;;;16.30;74.90
61488;BME280;47351;53.326;-6.298;2022-07-06T06:30:13;102632.39;;;16.33;74.76
61488;BME280;47351;53.326;-6.298;2022-07-06T06:33:27;102629.34;;;16.37;74.73
61488;BME280;47351;53.326;-6.298;2022-07-06T06:40:19;102640.91;;;16.43;74.45
61488;BME280;47351;53.326;-6.298;2022-07-06T06:43:25;102635.52;;;16.47;74.28
61488;BME280;47351;53.326;-6.298;2022-07-06T06:47:12;102643.12;;;16.47;74.26
61488;BME280;47351;53.326;-6.298;2022-07-06T06:50:46;102642.07;;;16.44;74.21
61488;BME280;47351;53.326;-6.298;2022-07-06T06:53:40;102636.16;;;16.48;74.24
61488;BME280;47351;53.326;-6.298;2022-07-06T06:56:54;102638.02;;;16.55;73.98
61488;BME280;47351;53.326;-6.298;2022-07-06T06:59:42;102639.96;;;16.63;73.90
61488;BME280;47351;53.326;-6.298;2022-07-06T07:02:50;102635.31;;;16.73;73.54
61488;BME280;47351;53.326;-6.298;2022-07-06T07:05:27;102636.48;;;16.87;73.52
61488;BME280;47351;53.326;-6.298;2022-07-06T07:08:09;102637.71;;;17.04;73.31
61488;BME280;47351;53.326;-6.298;2022-07-06T07:10:53;102636.29;;;17.18;72.70
61488;BME280;47351;53.326;-6.298;2022-07-06T07:13:32;102643.59;;;17.35;72.26
61488;BME280;47351;53.326;-6.298;2022-07-06T07:16:35;102641.48;;;17.49;71.56
61488;BME280;47351;53.326;-6.298;2022-07-06T07:19:53;102640.23;;;17.68;71.14
61488;BME280;47351;53.326;-6.298;2022-07-06T07:26:51;102638.89;;;18.16;69.62
61488;BME280;47351;53.326;-6.298;2022-07-06T07:30:10;102636.30;;;18.35;68.93
61488;BME280;47351;53.326;-6.298;2022-07-06T07:32:56;102633.89;;;18.53;68.94
61488;BME280;47351;53.326;-6.298;2022-07-06T07:35:39;102635.97;;;18.71;68.58
61488;BME280;47351;53.326;-6.298;2022-07-06T07:38:29;102634.86;;;18.79;67.78
61488;BME280;47351;53.326;-6.298;2022-07-06T07:41:37;102635.14;;;18.80;67.46
61488;BME280;47351;53.326;-6.298;2022-07-06T07:45:25;102631.95;;;18.84;67.74
61488;BME280;47351;53.326;-6.298;2022-07-06T07:48:25;102632.33;;;18.98;67.04
61488;BME280;47351;53.326;-6.298;2022-07-06T07:51:02;102638.53;;;18.97;66.39
61488;BME280;47351;53.326;-6.298;2022-07-06T07:53:44;102636.19;;;18.92;66.33
61488;BME280;47351;53.326;-6.298;2022-07-06T07:56:27;102639.36;;;18.93;66.19
61488;BME280;47351;53.326;-6.298;2022-07-06T07:59:06;102636.14;;;19.07;66.03
61488;BME280;47351;53.326;-6.298;2022-07-06T08:01:51;102637.67;;;19.27;65.80
61488;BME280;47351;53.326;-6.298;2022-07-06T08:04:39;102641.67;;;19.38;65.47
61488;BME280;47351;53.326;-6.298;2022-07-06T08:08:09;102645.38;;;19.40;65.40
61488;BME280;47351;53.326;-6.298;2022-07-06T08:11:23;102645.83;;;19.44;64.67
61488;BME280;47351;53.326;-6.298;2022-07-06T08:14:34;102646.77;;;19.41;64.20
61488;BME280;47351;53.326;-6.298;2022-07-06T08:17:16;102645.95;;;19.43;64.09
61488;BME280;47351;53.326;-6.298;2022-07-06T08:20:18;102636.03;;;19.54;63.69
61488;BME280;47351;53.326;-6.298;2022-07-06T08:23:08;102636.09;;;19.66;63.05
61488;BME280;47351;53.326;-6.298;2022-07-06T08:26:05;102630.21;;;19.75;62.96
61488;BME280;47351;53.326;-6.298;2022-07-06T08:29:02;102624.60;;;19.91;62.77
61488;BME280;47351;53.326;-6.298;2022-07-06T08:31:44;102624.02;;;19.99;62.46
61488;BME280;47351;53.326;-6.298;2022-07-06T08:34:37;102626.66;;;20.00;61.81
61488;BME280;47351;53.326;-6.298;2022-07-06T08:37:11;102630.86;;;19.83;62.13
61488;BME280;47351;53.326;-6.298;2022-07-06T08:39:43;102627.90;;;19.77;62.15
61488;BME280;47351;53.326;-6.298;2022-07-06T08:42:17;102626.35;;;19.77;61.93
61488;BME280;47351;53.326;-6.298;2022-07-06T08:44:51;102623.08;;;19.72;61.75
61488;BME280;47351;53.326;-6.298;2022-07-06T08:47:26;102616.31;;;19.74;61.67
61488;BME280;47351;53.326;-6.298;2022-07-06T08:49:58;102618.11;;;19.66;61.92
61488;BME280;47351;53.326;-6.298;2022-07-06T08:52:31;102615.27;;;19.51;62.15
61488;BME280;47351;53.326;-6.298;2022-07-06T08:55:04;102612.30;;;19.45;62.53
61488;BME280;47351;53.326;-6.298;2022-07-06T08:57:36;102614.95;;;19.40;62.29
61488;BME280;47351;53.326;-6.298;2022-07-06T09:00:11;102616.58;;;19.29;62.22
61488;BME280;47351;53.326;-6.298;2022-07-06T09:02:43;102618.27;;;19.27;62.62
61488;BME280;47351;53.326;-6.298;2022-07-06T09:05:16;102609.65;;;19.38;62.31
61488;BME280;47351;53.326;-6.298;2022-07-06T09:07:50;102609.86;;;19.59;61.94
61488;BME280;47351;53.326;-6.298;2022-07-06T09:10:30;102603.09;;;19.77;61.33
61488;BME280;47351;53.326;-6.298;2022-07-06T09:13:05;102599.50;;;19.90;61.14
61488;BME280;47351;53.326;-6.298;2022-07-06T09:15:38;102598.72;;;19.73;60.81
61488;BME280;47351;53.326;-6.298;2022-07-06T09:18:13;102598.96;;;19.49;61.27
61488;BME280;47351;53.326;-6.298;2022-07-06T09:20:45;102599.13;;;19.41;61.79
61488;BME280;47351;53.326;-6.298;2022-07-06T09:23:18;102595.23;;;19.40;61.72
61488;BME280;47351;53.326;-6.298;2022-07-06T09:25:50;102599.91;;;19.40;61.45
61488;BME280;47351;53.326;-6.298;2022-07-06T09:28:22;102600.69;;;19.48;61.26
61488;BME280;47351;53.326;-6.298;2022-07-06T09:31:08;102597.84;;;19.62;60.70
61488;BME280;47351;53.326;-6.298;2022-07-06T09:33:57;102599.98;;;19.73;60.45
61488;BME280;47351;53.326;-6.298;2022-07-06T09:36:44;102603.55;;;19.84;60.13
61488;BME280;47351;53.326;-6.298;2022-07-06T09:39:25;102609.27;;;19.97;59.52
61488;BME280;47351;53.326;-6.298;2022-07-06T09:42:00;102606.08;;;20.17;59.53
61488;BME280;47351;53.326;-6.298;2022-07-06T09:44:34;102611.10;;;21.06;57.35
61488;BME280;47351;53.326;-6.298;2022-07-06T09:47:09;102608.27;;;21.92;55.70
61488;BME280;47351;53.326;-6.298;2022-07-06T09:49:42;102603.25;;;22.33;55.15
61488;BME280;47351;53.326;-6.298;2022-07-06T09:52:14;102599.55;;;22.35;54.76
61488;BME280;47351;53.326;-6.298;2022-07-06T09:54:51;102606.83;;;22.10;54.86
61488;BME280;47351;53.326;-6.298;2022-07-06T09:57:26;102612.84;;;21.83;54.44
61488;BME280;47351;53.326;-6.298;2022-07-06T09:59:59;102606.56;;;21.60;54.47
61488;BME280;47351;53.326;-6.298;2022-07-06T10:02:41;102605.01;;;21.56;55.25
61488;BME280;47351;53.326;-6.298;2022-07-06T10:05:13;102611.65;;;21.73;54.58
61488;BME280;47351;53.326;-6.298;2022-07-06T10:07:51;102595.81;;;22.09;54.23
61488;BME280;47351;53.326;-6.298;2022-07-06T10:10:23;102595.66;;;22.01;53.54
61488;BME280;47351;53.326;-6.298;2022-07-06T10:12:56;102589.16;;;21.76;53.78
61488;BME280;47351;53.326;-6.298;2022-07-06T10:15:29;102577.65;;;21.58;53.86
61488;BME280;47351;53.326;-6.298;2022-07-06T10:18:03;102572.42;;;21.46;54.64
61488;BME280;47351;53.326;-6.298;2022-07-06T10:20:37;102567.39;;;21.56;54.49
61488;BME280;47351;53.326;-6.298;2022-07-06T10:23:09;102566.34;;;21.90;54.08
61488;BME280;47351;53.326;-6.298;2022-07-06T10:25:41;102564.29;;;22.54;52.83
61488;BME280;47351;53.326;-6.298;2022-07-06T10:28:13;102569.32;;;22.71;52.48
61488;BME280;47351;53.326;-6.298;2022-07-06T10:30:46;102573.08;;;22.62;52.54
61488;BME280;47351;53.326;-6.298;2022-07-06T10:33:22;102565.52;;;22.62;52.72
61488;BME280;47351;53.326;-6.298;2022-07-06T10:35:57;102571.68;;;22.77;52.52
61488;BME280;47351;53.326;-6.298;2022-07-06T10:38:34;102563.64;;;22.91;52.18
61488;BME280;47351;53.326;-6.298;2022-07-06T10:41:07;102560.70;;;22.82;52.35
61488;BME280;47351;53.326;-6.298;2022-07-06T10:43:41;102558.88;;;22.69;52.35
61488;BME280;47351;53.326;-6.298;2022-07-06T10:46:15;102563.61;;;22.39;52.81
61488;BME280;47351;53.326;-6.298;2022-07-06T10:48:49;102566.42;;;22.35;53.26
61488;BME280;47351;53.326;-6.298;2022-07-06T10:51:26;102560.61;;;22.17;53.11
61488;BME280;47351;53.326;-6.298;2022-07-06T10:53:59;102560.20;;;22.07;53.48
61488;BME280;47351;53.326;-6.298;2022-07-06T10:56:38;102556.10;;;22.11;53.62
61488;BME280;47351;53.326;-6.298;2022-07-06T10:59:12;102566.81;;;22.13;53.40
61488;BME280;47351;53.326;-6.298;2022-07-06T11:02:14;102568.05;;;21.98;53.51
61488;BME280;47351;53.326;-6.298;2022-07-06T11:04:47;102570.77;;;22.28;53.29
61488;BME280;47351;53.326;-6.298;2022-07-06T11:07:20;102572.35;;;22.57;52.85
61488;BME280;47351;53.326;-6.298;2022-07-06T11:09:57;102574.39;;;22.63;52.68
61488;BME280;47351;53.326;-6.298;2022-07-06T11:12:45;102577.18;;;22.61;53.13
61488;BME280;47351;53.326;-6.298;2022-07-06T11:15:47;102567.70;;;22.51;53.08
61488;BME280;47351;53.326;-6.298;2022-07-06T11:18:21;102559.66;;;22.83;53.09
61488;BME280;47351;53.326;-6.298;2022-07-06T11:21:19;102559.89;;;23.14;52.48
61488;BME280;47351;53.326;-6.298;2022-07-06T11:23:52;102555.17;;;23.62;51.16
61488;BME280;47351;53.326;-6.298;2022-07-06T11:26:24;102550.30;;;25.45;48.84
61488;BME280;47351;53.326;-6.298;2022-07-06T11:28:59;102547.49;;;26.84;46.44
61488;BME280;47351;53.326;-6.298;2022-07-06T11:31:31;102547.30;;;27.44;44.32
61488;BME280;47351;53.326;-6.298;2022-07-06T11:34:07;102542.42;;;27.65;43.17
61488;BME280;47351;53.326;-6.298;2022-07-06T11:36:49;102540.35;;;27.78;43.50
61488;BME280;47351;53.326;-6.298;2022-07-06T11:39:30;102543.10;;;27.97;42.79
61488;BME280;47351;53.326;-6.298;2022-07-06T11:42:04;102539.29;;;28.51;42.05
61488;BME280;47351;53.326;-6.298;2022-07-06T11:44:37;102547.27;;;28.03;42.08
61488;BME280;47351;53.326;-6.298;2022-07-06T11:47:10;102540.88;;;27.29;42.76
61488;BME280;47351;53.326;-6.298;2022-07-06T11:49:42;102542.75;;;26.60;43.41
61488;BME280;47351;53.326;-6.298;2022-07-06T11:52:16;102539.70;;;26.26;44.19
61488;BME280;47351;53.326;-6.298;2022-07-06T11:54:56;102540.63;;;25.88;44.86
61488;BME280;47351;53.326;-6.298;2022-07-06T11:57:32;102535.16;;;25.66;45.41
61488;BME280;47351;53.326;-6.298;2022-07-06T12:00:07;102527.80;;;25.51;45.61
61488;BME280;47351;53.326;-6.298;2022-07-06T12:02:42;102522.56;;;25.19;45.82
61488;BME280;47351;53.326;-6.298;2022-07-06T12:05:35;102514.93;;;25.20;46.10
61488;BME280;47351;53.326;-6.298;2022-07-06T12:08:12;102522.92;;;25.47;45.67
61488;BME280;47351;53.326;-6.298;2022-07-06T12:10:43;102515.11;;;25.46;46.06
61488;BME280;47351;53.326;-6.298;2022-07-06T12:13:19;102511.71;;;25.87;45.73
61488;BME280;47351;53.326;-6.298;2022-07-06T12:23:13;102501.64;;;26.88;44.14
61488;BME280;47351;53.326;-6.298;2022-07-06T12:30:49;102503.30;;;25.94;44.17
61488;BME280;47351;53.326;-6.298;2022-07-06T12:54:35;102483.50;;;26.78;44.06
61488;BME280;47351;53.326;-6.298;2022-07-06T13:17:22;102454.66;;;25.72;45.51
61488;BME280;47351;53.326;-6.298;2022-07-06T13:19:54;102450.54;;;26.57;44.63
61488;BME280;47351;53.326;-6.298;2022-07-06T13:22:26;102444.45;;;27.48;43.47
61488;BME280;47351;53.326;-6.298;2022-07-06T13:24:57;102452.73;;;27.42;43.10
61488;BME280;47351;53.326;-6.298;2022-07-06T13:27:31;102455.02;;;26.81;43.39
61488;BME280;47351;53.326;-6.298;2022-07-06T13:30:02;102458.85;;;26.21;44.39
61488;BME280;47351;53.326;-6.298;2022-07-06T13:32:37;102456.09;;;25.93;44.30
61488;BME280;47351;53.326;-6.298;2022-07-06T13:35:10;102461.19;;;26.39;44.19
61488;BME280;47351;53.326;-6.298;2022-07-06T13:37:41;102456.45;;;26.40;43.81
61488;BME280;47351;53.326;-6.298;2022-07-06T13:40:13;102458.40;;;26.19;43.60
61488;BME280;47351;53.326;-6.298;2022-07-06T13:42:45;102461.42;;;25.74;44.41
61488;BME280;47351;53.326;-6.298;2022-07-06T13:45:20;102462.33;;;25.35;45.06
61488;BME280;47351;53.326;-6.298;2022-07-06T13:48:11;102450.41;;;25.00;46.02
61488;BME280;47351;53.326;-6.298;2022-07-06T13:50:43;102453.80;;;24.87;46.22
61488;BME280;47351;53.326;-6.298;2022-07-06T13:53:53;102450.42;;;24.73;47.07
61488;BME280;47351;53.326;-6.298;2022-07-06T13:56:25;102456.07;;;24.77;47.02
61488;BME280;47351;53.326;-6.298;2022-07-06T13:58:57;102450.55;;;24.84;47.52
61488;BME280;47351;53.326;-6.298;2022-07-06T14:01:29;102457.84;;;25.21;46.65
61488;BME280;47351;53.326;-6.298;2022-07-06T14:04:01;102448.81;;;25.16;46.64
61488;BME280;47351;53.326;-6.298;2022-07-06T14:06:33;102451.59;;;24.95;46.59
61488;BME280;47351;53.326;-6.298;2022-07-06T14:09:04;102452.52;;;24.70;47.00
61488;BME280;47351;53.326;-6.298;2022-07-06T14:11:36;102454.41;;;24.41;47.58
61488;BME280;47351;53.326;-6.298;2022-07-06T14:14:07;102450.72;;;24.17;48.15
61488;BME280;47351;53.326;-6.298;2022-07-06T14:16:39;102451.02;;;23.90;48.86
61488;BME280;47351;53.326;-6.298;2022-07-06T14:19:11;102448.51;;;23.75;49.46
61488;BME280;47351;53.326;-6.298;2022-07-06T14:21:52;102446.64;;;24.07;49.11
61488;BME280;47351;53.326;-6.298;2022-07-06T14:24:23;102437.33;;;24.53;48.53
61488;BME280;47351;53.326;-6.298;2022-07-06T14:27:01;102439.33;;;24.73;48.43
61488;BME280;47351;53.326;-6.298;2022-07-06T14:29:32;102450.03;;;25.04;47.76
61488;BME280;47351;53.326;-6.298;2022-07-06T14:32:05;102442.24;;;24.69;48.18
61488;BME280;47351;53.326;-6.298;2022-07-06T14:34:37;102457.80;;;24.21;49.14
61488;BME280;47351;53.326;-6.298;2022-07-06T14:37:09;102463.23;;;23.92;49.85
61488;BME280;47351;53.326;-6.298;2022-07-06T14:39:48;102458.76;;;24.17;49.55
61488;BME280;47351;53.326;-6.298;2022-07-06T14:42:20;102458.98;;;25.11;48.37
61488;BME280;47351;53.326;-6.298;2022-07-06T14:44:52;102462.65;;;25.71;46.91
61488;BME280;47351;53.326;-6.298;2022-07-06T14:47:23;102455.14;;;25.70;46.79
61488;BME280;47351;53.326;-6.298;2022-07-06T14:50:02;102448.87;;;25.52;47.33
61488;BME280;47351;53.326;-6.298;2022-07-06T14:52:45;102446.28;;;24.89;48.02
61488;BME280;47351;53.326;-6.298;2022-07-06T14:55:17;102449.63;;;24.36;48.95
61488;BME280;47351;53.326;-6.298;2022-07-06T14:58:10;102449.90;;;24.11;49.29
61488;BME280;47351;53.326;-6.298;2022-07-06T15:00:41;102454.29;;;24.11;49.40
61488;BME280;47351;53.326;-6.298;2022-07-06T15:03:13;102445.89;;;24.22;48.97
61488;BME280;47351;53.326;-6.298;2022-07-06T15:05:45;102452.69;;;24.13;48.50
61488;BME280;47351;53.326;-6.298;2022-07-06T15:08:17;102455.10;;;24.03;48.58